createdAt,value
2019-06-08T15:04:42.462Z,31.90
2019-06-08T15:07:47.667Z,31.90
2019-06-08T15:10:49.794Z,33.00
2019-06-08T15:13:51.640Z,32.70
2019-06-08T15:16:54.121Z,31.10
2019-06-08T15:19:55.680Z,31.00
2019-06-08T15:22:57.865Z,31.00
2019-06-08T15:26:02.850Z,33.10
2019-06-08T15:29:04.610Z,31.30
2019-06-08T15:32:08.138Z,31.10
2019-06-08T15:35:09.577Z,30.20
2019-06-08T15:38:10.995Z,30.00
2019-06-08T15:41:12.506Z,30.00
2019-06-08T15:44:14.020Z,29.80
2019-06-08T15:47:18.063Z,30.50
2019-06-08T15:50:19.891Z,30.60
2019-06-08T15:53:22.321Z,30.50
2019-06-08T15:56:38.221Z,29.90
2019-06-08T15:59:30.878Z,30.20
2019-06-08T16:02:32.019Z,31.20
2019-06-08T16:05:33.880Z,31.30
2019-06-08T16:08:38.484Z,29.90
2019-06-08T16:11:40.091Z,31.20
2019-06-08T16:14:43.058Z,29.50
2019-06-08T16:17:44.594Z,29.30
2019-06-08T16:20:49.283Z,29.80
2019-06-08T16:23:50.689Z,30.40
2019-06-08T16:26:53.707Z,30.50
2019-06-08T16:29:55.279Z,30.20
2019-06-08T16:32:57.281Z,30.00
2019-06-08T16:36:00.364Z,30.00
2019-06-08T16:39:02.094Z,31.10
2019-06-08T16:42:05.175Z,31.90
2019-06-08T16:45:07.071Z,31.70
2019-06-08T16:48:08.810Z,31.20
2019-06-08T16:51:10.565Z,30.00
2019-06-08T16:54:14.028Z,29.60
2019-06-08T16:57:15.754Z,29.70
2019-06-08T17:00:30.320Z,30.50
2019-06-08T17:03:21.273Z,31.60
2019-06-08T17:06:22.749Z,32.40
2019-06-08T17:09:24.479Z,33.10
2019-06-08T17:12:25.924Z,33.20
2019-06-08T17:15:31.863Z,33.50
2019-06-08T17:18:34.228Z,34.10
2019-06-08T17:21:36.370Z,34.50
2019-06-08T17:24:38.897Z,35.00
2019-06-08T17:27:40.972Z,35.10
2019-06-08T17:30:42.636Z,34.90
2019-06-08T17:33:44.078Z,34.90
2019-06-08T17:36:45.609Z,35.00
2019-06-08T17:39:47.026Z,35.00
2019-06-08T17:42:48.516Z,35.20
2019-06-08T17:45:49.904Z,35.50
2019-06-08T17:48:51.382Z,35.70
2019-06-08T17:51:52.834Z,36.20
2019-06-08T17:54:54.388Z,36.50
2019-06-08T17:57:55.802Z,36.80
2019-06-08T18:00:57.258Z,37.50
2019-06-08T18:03:58.931Z,36.70
2019-06-08T18:07:00.462Z,36.80
2019-06-08T18:10:01.841Z,37.30
2019-06-08T18:13:03.331Z,37.80
2019-06-08T18:16:05.066Z,38.10
2019-06-08T18:19:08.092Z,38.00
2019-06-08T18:22:15.355Z,38.10
2019-06-08T18:25:13.400Z,38.30
2019-06-08T18:28:17.066Z,38.60
2019-06-08T18:31:18.273Z,38.60
2019-06-08T18:34:19.758Z,39.00
2019-06-08T18:37:21.211Z,39.00
2019-06-08T18:40:22.905Z,39.20
2019-06-08T18:43:27.984Z,39.50
2019-06-08T18:46:30.485Z,39.50
2019-06-08T18:49:32.064Z,39.50
2019-06-08T18:52:33.777Z,39.90
2019-06-08T18:55:36.309Z,40.20
2019-06-08T18:58:39.659Z,40.40
2019-06-08T19:01:42.141Z,40.70
2019-06-08T19:04:45.625Z,41.10
2019-06-08T19:07:50.252Z,41.20
2019-06-08T19:10:51.181Z,41.40
2019-06-08T19:13:54.275Z,41.50
2019-06-08T19:16:58.091Z,41.80
2019-06-08T19:19:59.081Z,42.20
2019-06-08T19:23:00.950Z,42.20
2019-06-08T19:26:03.416Z,41.90
2019-06-08T19:29:07.586Z,42.40
2019-06-08T19:32:08.421Z,42.60
2019-06-08T19:35:10.222Z,43.60
2019-06-08T19:38:11.792Z,43.20
2019-06-08T19:41:13.367Z,43.50
2019-06-08T19:44:14.824Z,43.80
2019-06-08T19:47:17.641Z,43.90
2019-06-08T19:50:19.824Z,44.00
2019-06-08T19:53:21.489Z,44.00
2019-06-08T19:56:22.905Z,44.50
2019-06-08T19:59:24.401Z,44.50
2019-06-08T20:02:27.159Z,44.60
2019-06-08T20:05:29.001Z,44.70
2019-06-08T20:08:30.451Z,44.90
2019-06-08T20:11:32.115Z,45.10
2019-06-08T20:14:33.586Z,45.20
2019-06-08T20:17:37.155Z,45.30
2019-06-08T20:20:38.277Z,45.30
2019-06-08T20:23:41.045Z,45.40
2019-06-08T20:26:42.653Z,45.30
2019-06-08T20:29:45.110Z,45.40
2019-06-08T20:32:50.799Z,45.50
2019-06-08T20:35:51.925Z,45.40
2019-06-08T20:38:53.485Z,45.50
2019-06-08T20:41:54.895Z,45.60
2019-06-08T20:44:57.786Z,45.70
2019-06-08T20:47:59.355Z,46.00
2019-06-08T20:51:00.774Z,46.00
2019-06-08T20:54:02.207Z,46.10
2019-06-08T20:57:03.630Z,46.10
2019-06-08T21:00:09.202Z,46.30
2019-06-08T21:03:09.932Z,46.40
2019-06-08T21:06:11.397Z,46.60
2019-06-08T21:09:12.815Z,46.50
2019-06-08T21:12:14.296Z,46.60
2019-06-08T21:15:17.779Z,46.80
2019-06-08T21:18:19.316Z,46.90
2019-06-08T21:21:21.241Z,47.00
2019-06-08T21:24:23.021Z,47.00
2019-06-08T21:27:24.510Z,47.00
2019-06-08T21:30:28.491Z,47.00
2019-06-08T21:33:29.205Z,47.00
2019-06-08T21:36:30.674Z,47.10
2019-06-08T21:39:36.059Z,47.20
2019-06-08T21:42:37.193Z,47.00
2019-06-08T21:45:39.784Z,47.00
2019-06-08T21:48:41.276Z,47.00
2019-06-08T21:51:43.563Z,47.00
2019-06-08T21:54:45.003Z,47.00
2019-06-08T21:57:49.489Z,47.10
2019-06-08T22:00:52.703Z,47.20
2019-06-08T22:03:56.553Z,47.30
2019-06-08T22:06:59.651Z,47.20
2019-06-08T22:10:02.789Z,47.20
2019-06-08T22:13:08.061Z,47.20
2019-06-08T22:16:08.828Z,47.50
2019-06-08T22:19:10.377Z,47.50
2019-06-08T22:22:12.803Z,47.40
2019-06-08T22:25:45.065Z,47.40
2019-06-08T22:28:17.808Z,47.60
2019-06-08T22:31:19.268Z,47.50
2019-06-08T22:34:20.720Z,47.50
2019-06-08T22:37:22.847Z,47.30
2019-06-08T22:40:24.281Z,47.70
2019-06-08T22:43:25.805Z,47.60
2019-06-08T22:46:27.237Z,47.70
2019-06-08T22:49:28.654Z,48.00
2019-06-08T22:52:30.089Z,47.60
2019-06-08T22:55:31.560Z,47.50
2019-06-08T22:58:34.065Z,47.80
2019-06-08T23:01:37.711Z,47.80
2019-06-08T23:04:38.609Z,47.80
2019-06-08T23:07:40.043Z,47.70
2019-06-08T23:10:41.492Z,47.70
2019-06-08T23:13:42.923Z,47.80
2019-06-08T23:16:44.371Z,47.80
2019-06-08T23:19:48.054Z,47.60
2019-06-08T23:22:48.978Z,47.60
2019-06-08T23:25:50.411Z,47.70
2019-06-08T23:28:51.812Z,47.70
2019-06-08T23:31:53.303Z,48.20
2019-06-08T23:34:54.680Z,49.10
2019-06-08T23:37:56.806Z,49.30
2019-06-08T23:41:00.775Z,49.30
2019-06-08T23:44:01.509Z,49.40
2019-06-08T23:47:04.375Z,49.80
2019-06-08T23:50:10.048Z,49.80
2019-06-08T23:53:10.975Z,50.00
2019-06-08T23:56:12.422Z,49.90
2019-06-08T23:59:13.830Z,50.30
